Terminal Aerodrome Forecast
Issued by NWS

Home | Current Version | Previous Version | Text Only | Print | Product List | Glossary On
Versions: 1 2 3 4 5 6 7 8 9 10 11 12 13 14 15 16
000
FTUS46 KSEW 291700
TAFPAE
TAF
KPAE 291720Z 2918/3018 VRB03KT P6SM SCT015 OVC030
      TEMPO 2918/2922 5SM -RA BR BKN015 OVC030
     FM300600 18006KT P6SM OVC015
     FM301700 24007KT P6SM SCT025 BKN050=

USA.gov is the U.S. government's official web portal to all federal, state and local government web resources and services.